Time;durP1;ratioP1;P1;durP2;ratioP2;P2;SDS_P1;SDS_P2;PMS_P1;PMS_P2;Temp;Humidity;BMP_temperature;BMP_pressure;BME280_temperature;BME280_humidity;BME280_pressure;Samples;Min_cycle;Max_cycle;Signal;HPM_P1;HPM_P2
2022/09/11 00:00:58;;;;;;;0.10;0.10;;;15.20;99.90;;;;;;5056661;28;20448;-88
2022/09/11 00:03:24;;;;;;;0.10;0.10;;;15.20;99.90;;;;;;5067702;28;20240;-87
2022/09/11 00:05:50;;;;;;;0.10;0.10;;;15.30;99.90;;;;;;5064947;28;20939;-88
2022/09/11 00:08:18;;;;;;;0.10;0.10;;;15.30;99.90;;;;;;5058767;28;20179;-88
2022/09/11 00:10:46;;;;;;;0.10;0.10;;;15.30;99.90;;;;;;5078244;28;20505;-87
2022/09/11 00:13:18;;;;;;;0.10;0.10;;;15.40;99.90;;;;;;5069838;28;20465;-88
2022/09/11 00:15:44;;;;;;;0.10;0.10;;;15.40;99.90;;;;;;5066628;28;20443;-87
2022/09/11 00:18:13;;;;;;;0.10;0.10;;;15.40;99.90;;;;;;5061002;28;20502;-87
2022/09/11 00:20:45;;;;;;;0.10;0.10;;;15.40;99.90;;;;;;5068563;28;20487;-87
2022/09/11 00:23:12;;;;;;;0.10;0.10;;;15.40;99.90;;;;;;5067024;28;20447;-87
2022/09/11 00:25:39;;;;;;;0.10;0.10;;;15.40;99.90;;;;;;5063774;28;20569;-88
2022/09/11 00:28:06;;;;;;;0.10;0.10;;;15.40;99.90;;;;;;5051068;28;20996;-87
2022/09/11 00:30:32;;;;;;;0.10;0.10;;;15.40;99.90;;;;;;5061205;28;20481;-87
2022/09/11 00:32:57;;;;;;;0.10;0.10;;;15.40;99.90;;;;;;5069649;28;20454;-88
2022/09/11 00:35:23;;;;;;;0.10;0.10;;;15.40;99.90;;;;;;5064292;28;20634;-87
2022/09/11 00:37:49;;;;;;;0.10;0.10;;;15.40;99.90;;;;;;5065691;28;20182;-87
2022/09/11 00:40:16;;;;;;;0.10;0.10;;;15.30;99.90;;;;;;5061642;28;20627;-87
2022/09/11 00:42:41;;;;;;;0.10;0.10;;;15.30;99.90;;;;;;5053668;28;20224;-88
2022/09/11 00:45:24;;;;;;;0.10;0.10;;;15.30;99.90;;;;;;5064182;28;20480;-87
2022/09/11 00:47:51;;;;;;;0.10;0.10;;;15.30;99.90;;;;;;5049380;28;20622;-87
2022/09/11 00:50:20;;;;;;;0.10;0.10;;;15.30;99.90;;;;;;5064879;28;20441;-87
2022/09/11 00:53:12;;;;;;;0.10;0.10;;;15.20;99.90;;;;;;5063196;28;20441;-88
2022/09/11 00:55:43;;;;;;;0.10;0.10;;;15.10;99.90;;;;;;5053734;28;20452;-88
2022/09/11 00:58:16;;;;;;;0.10;0.10;;;15.00;99.90;;;;;;5066173;28;20473;-86
2022/09/11 01:00:43;;;;;;;0.10;0.10;;;14.90;99.90;;;;;;5065363;28;20455;-87
2022/09/11 01:03:10;;;;;;;0.10;0.10;;;14.80;99.90;;;;;;5062383;28;20447;-87
2022/09/11 01:05:38;;;;;;;0.10;0.10;;;14.90;99.90;;;;;;5068052;28;20440;-88
2022/09/11 01:08:05;;;;;;;0.10;0.10;;;14.90;99.90;;;;;;5065475;28;20999;-87
2022/09/11 01:10:56;;;;;;;0.10;0.10;;;14.80;99.90;;;;;;5061054;28;20949;-87
2022/09/11 01:13:41;;;;;;;0.10;0.10;;;14.70;99.90;;;;;;5053097;28;20445;-87
2022/09/11 01:16:07;;;;;;;0.10;0.10;;;14.70;99.90;;;;;;5067883;28;20502;-88
2022/09/11 01:19:03;;;;;;;0.10;0.10;;;14.70;99.90;;;;;;5064573;28;20464;-88
2022/09/11 01:21:55;;;;;;;0.10;0.10;;;14.70;99.90;;;;;;5040246;28;20876;-88
2022/09/11 01:24:32;;;;;;;0.10;0.10;;;14.60;99.90;;;;;;5063297;28;20447;-87
2022/09/11 01:27:26;;;;;;;0.10;0.10;;;14.70;99.90;;;;;;5066747;28;20520;-87
2022/09/11 01:29:59;;;;;;;0.10;0.10;;;14.70;99.90;;;;;;5066564;28;20845;-87
2022/09/11 01:32:32;;;;;;;0.10;0.10;;;14.80;99.90;;;;;;5064808;28;20436;-87
2022/09/11 01:35:05;;;;;;;0.10;0.10;;;14.80;99.90;;;;;;5068016;28;20505;-88
2022/09/11 01:37:58;;;;;;;0.10;0.10;;;14.80;99.90;;;;;;5065154;28;20940;-87
2022/09/11 01:40:37;;;;;;;0.10;0.10;;;14.80;99.90;;;;;;5054537;28;20483;-87
2022/09/11 01:43:08;;;;;;;0.10;0.10;;;14.90;99.90;;;;;;5062210;28;20952;-88
2022/09/11 01:45:38;;;;;;;0.20;0.20;;;14.90;99.90;;;;;;5062473;28;20493;-88
2022/09/11 01:48:06;;;;;;;0.10;0.10;;;14.90;99.90;;;;;;5065518;28;20451;-87
2022/09/11 01:50:36;;;;;;;0.10;0.10;;;15.00;99.90;;;;;;5065420;28;20497;-87
2022/09/11 01:53:04;;;;;;;0.10;0.10;;;15.00;99.90;;;;;;5066824;28;20448;-88
2022/09/11 01:55:41;;;;;;;0.10;0.10;;;15.10;99.90;;;;;;5054582;28;20456;-88
2022/09/11 01:58:10;;;;;;;0.10;0.10;;;15.00;99.90;;;;;;5060534;28;20439;-87
2022/09/11 02:00:38;;;;;;;0.10;0.10;;;14.90;99.90;;;;;;5077596;28;20894;-88
2022/09/11 02:03:21;;;;;;;0.10;0.10;;;14.90;99.90;;;;;;5050413;28;20467;-88
2022/09/11 02:05:58;;;;;;;0.10;0.10;;;14.70;99.90;;;;;;5061117;28;20455;-88
2022/09/11 02:08:38;;;;;;;0.10;0.10;;;14.70;99.90;;;;;;5067079;28;20502;-87
2022/09/11 02:11:10;;;;;;;0.10;0.10;;;14.70;99.90;;;;;;5063776;28;20461;-87
2022/09/11 02:14:09;;;;;;;0.10;0.10;;;14.70;99.90;;;;;;5061115;28;20771;-87
2022/09/11 02:16:50;;;;;;;0.10;0.10;;;14.70;99.90;;;;;;5064459;28;20444;-88
2022/09/11 02:19:24;;;;;;;0.10;0.10;;;14.80;99.90;;;;;;5068420;28;20581;-88
2022/09/11 02:21:50;;;;;;;0.10;0.10;;;14.80;99.90;;;;;;5068107;28;20436;-88
2022/09/11 02:24:17;;;;;;;0.10;0.10;;;14.70;99.90;;;;;;5067576;28;20970;-87
2022/09/11 02:26:57;;;;;;;0.10;0.10;;;14.60;99.90;;;;;;5068380;28;20197;-87
2022/09/11 02:29:23;;;;;;;0.10;0.10;;;14.70;99.90;;;;;;5070539;28;20479;-87
2022/09/11 02:31:51;;;;;;;0.10;0.10;;;14.60;99.90;;;;;;5059987;28;20959;-87
2022/09/11 02:34:26;;;;;;;0.10;0.10;;;14.70;99.90;;;;;;5068407;28;20561;-88
2022/09/11 02:37:01;;;;;;;0.10;0.10;;;14.80;99.90;;;;;;5063642;28;20447;-88
2022/09/11 02:39:44;;;;;;;0.10;0.10;;;14.80;99.90;;;;;;5064650;28;20468;-88
2022/09/11 02:42:34;;;;;;;0.10;0.10;;;14.70;99.90;;;;;;5056291;28;20622;-88
2022/09/11 02:45:28;;;;;;;0.10;0.10;;;14.70;99.90;;;;;;5066525;28;20497;-88
2022/09/11 02:48:18;;;;;;;0.10;0.10;;;14.60;99.90;;;;;;5060010;28;20447;-88
2022/09/11 02:51:21;;;;;;;0.10;0.10;;;14.50;99.90;;;;;;5058651;28;20472;-89
2022/09/11 02:53:53;;;;;;;0.10;0.10;;;14.40;99.90;;;;;;5083345;28;20498;-88
2022/09/11 02:56:41;;;;;;;0.10;0.10;;;14.30;99.90;;;;;;5067321;28;20548;-88
2022/09/11 02:59:16;;;;;;;0.10;0.10;;;14.30;99.90;;;;;;5067165;28;20489;-88
2022/09/11 03:01:53;;;;;;;0.10;0.10;;;14.20;99.90;;;;;;5066692;28;20455;-88
2022/09/11 03:04:21;;;;;;;0.10;0.10;;;14.20;99.90;;;;;;5070813;28;20797;-88
2022/09/11 03:06:48;;;;;;;0.10;0.10;;;14.00;99.90;;;;;;5069363;28;20467;-88
2022/09/11 03:09:15;;;;;;;0.10;0.10;;;14.10;99.90;;;;;;5070079;28;20948;-88
2022/09/11 03:11:41;;;;;;;0.10;0.10;;;13.90;99.90;;;;;;5062999;28;20530;-88
2022/09/11 03:14:07;;;;;;;0.10;0.10;;;13.90;99.90;;;;;;5069706;28;21054;-89
2022/09/11 03:16:33;;;;;;;0.10;0.10;;;14.00;99.90;;;;;;5067888;28;20448;-88
2022/09/11 03:18:58;;;;;;;0.10;0.10;;;13.80;99.90;;;;;;5067928;28;20209;-88
2022/09/11 03:21:24;;;;;;;0.10;0.10;;;13.80;99.90;;;;;;5067685;28;20727;-88
2022/09/11 03:23:49;;;;;;;0.10;0.10;;;13.80;99.90;;;;;;5069868;28;20182;-88
2022/09/11 03:26:16;;;;;;;0.10;0.10;;;13.80;99.90;;;;;;5067369;28;20666;-88
2022/09/11 03:28:43;;;;;;;0.10;0.10;;;13.70;99.90;;;;;;5069171;28;20653;-88
2022/09/11 03:31:09;;;;;;;0.10;0.10;;;13.70;99.90;;;;;;5068708;28;20456;-88
2022/09/11 03:33:34;;;;;;;0.10;0.10;;;13.80;99.90;;;;;;5068522;28;20493;-88
2022/09/11 03:36:00;;;;;;;0.10;0.10;;;13.70;99.90;;;;;;5065001;28;20437;-88
2022/09/11 03:38:26;;;;;;;0.10;0.10;;;13.70;99.90;;;;;;5084868;28;20198;-89
2022/09/11 03:40:53;;;;;;;0.10;0.10;;;13.70;99.90;;;;;;5067750;28;20535;-89
2022/09/11 03:43:19;;;;;;;0.10;0.10;;;13.70;99.90;;;;;;5071031;28;20268;-89
2022/09/11 03:45:48;;;;;;;0.10;0.10;;;13.70;99.90;;;;;;5068133;28;20519;-89
2022/09/11 03:48:14;;;;;;;0.10;0.10;;;13.70;99.90;;;;;;5066581;28;20451;-89
2022/09/11 03:50:40;;;;;;;0.10;0.10;;;13.70;99.90;;;;;;5054967;28;23184;-89
2022/09/11 03:53:05;;;;;;;0.10;0.10;;;13.70;99.90;;;;;;5061066;28;20239;-89
2022/09/11 03:55:31;;;;;;;0.10;0.10;;;13.60;99.90;;;;;;5066399;28;20688;-89
2022/09/11 03:57:58;;;;;;;0.10;0.10;;;13.70;99.90;;;;;;5059080;28;20190;-89
2022/09/11 04:00:24;;;;;;;0.10;0.10;;;13.60;99.90;;;;;;5066650;28;20221;-89
2022/09/11 04:02:49;;;;;;;0.10;0.10;;;13.60;99.90;;;;;;5064309;28;20820;-89
2022/09/11 04:05:15;;;;;;;0.10;0.10;;;13.60;99.90;;;;;;5065948;28;20441;-89
2022/09/11 04:07:41;;;;;;;0.10;0.10;;;13.50;99.90;;;;;;5068682;28;20186;-90
2022/09/11 04:10:07;;;;;;;0.20;0.20;;;13.50;99.90;;;;;;5068518;28;20719;-89
2022/09/11 04:12:32;;;;;;;0.10;0.10;;;13.50;99.90;;;;;;5066586;28;20174;-89
2022/09/11 04:14:58;;;;;;;0.10;0.10;;;13.50;99.90;;;;;;5067514;28;20186;-88
2022/09/11 04:17:23;;;;;;;0.10;0.10;;;13.50;99.90;;;;;;5069933;28;20691;-89
2022/09/11 04:19:49;;;;;;;0.10;0.10;;;13.50;99.90;;;;;;5066103;28;20645;-89
2022/09/11 04:22:14;;;;;;;0.10;0.10;;;13.40;99.90;;;;;;5068500;28;20170;-89
2022/09/11 04:24:40;;;;;;;0.10;0.10;;;13.30;99.90;;;;;;5067718;28;20194;-89
2022/09/11 04:27:05;;;;;;;0.10;0.10;;;13.30;99.90;;;;;;5059522;28;20769;-89
2022/09/11 04:29:32;;;;;;;0.10;0.10;;;13.30;99.90;;;;;;5068098;28;21018;-89
2022/09/11 04:31:58;;;;;;;0.10;0.10;;;13.30;99.90;;;;;;5053789;28;20193;-89
2022/09/11 04:34:24;;;;;;;0.10;0.10;;;13.30;99.90;;;;;;5057510;28;20444;-88
2022/09/11 04:36:49;;;;;;;0.10;0.10;;;13.30;99.90;;;;;;5058888;28;20179;-89
2022/09/11 04:39:15;;;;;;;0.10;0.10;;;13.20;99.90;;;;;;5069552;28;20467;-89
2022/09/11 04:41:40;;;;;;;0.10;0.10;;;13.20;99.90;;;;;;5061900;28;20195;-89
2022/09/11 04:44:06;;;;;;;0.10;0.10;;;13.20;99.90;;;;;;5061838;28;20589;-89
2022/09/11 04:46:32;;;;;;;0.10;0.10;;;13.20;99.90;;;;;;5060696;28;20189;-89
2022/09/11 04:49:03;;;;;;;0.10;0.10;;;13.10;99.90;;;;;;5064498;28;20194;-89
2022/09/11 04:51:31;;;;;;;0.10;0.10;;;13.10;99.90;;;;;;5065609;28;20520;-89
2022/09/11 04:53:58;;;;;;;0.10;0.10;;;13.10;99.90;;;;;;5068873;28;20444;-90
2022/09/11 04:56:26;;;;;;;0.10;0.10;;;13.10;99.90;;;;;;5064054;28;20517;-89
2022/09/11 04:58:55;;;;;;;0.10;0.10;;;13.10;99.90;;;;;;5061239;28;20495;-88
2022/09/11 05:01:22;;;;;;;0.10;0.10;;;13.20;99.90;;;;;;5063742;28;20494;-89
2022/09/11 05:03:47;;;;;;;0.10;0.10;;;13.10;99.90;;;;;;5065558;28;20445;-88
2022/09/11 05:06:15;;;;;;;0.10;0.10;;;13.10;99.90;;;;;;5064770;28;20444;-89
2022/09/11 05:08:43;;;;;;;0.10;0.10;;;13.10;99.90;;;;;;5057795;28;20185;-86
2022/09/11 05:11:10;;;;;;;0.10;0.10;;;13.10;99.90;;;;;;5062203;28;20497;-88
2022/09/11 05:13:36;;;;;;;0.10;0.10;;;13.20;99.90;;;;;;5068392;28;20830;-88
2022/09/11 05:16:13;;;;;;;0.10;0.10;;;13.10;99.90;;;;;;5065310;28;20505;-86
2022/09/11 05:18:41;;;;;;;0.10;0.10;;;13.10;99.90;;;;;;5065879;28;20241;-87
2022/09/11 05:21:14;;;;;;;0.10;0.10;;;13.10;99.90;;;;;;5064205;28;20460;-88
2022/09/11 05:23:41;;;;;;;0.10;0.10;;;13.10;99.90;;;;;;5068650;28;20443;-88
2022/09/11 05:26:21;;;;;;;0.10;0.10;;;13.10;99.90;;;;;;5064005;28;20451;-87
2022/09/11 05:28:52;;;;;;;0.10;0.10;;;13.10;99.90;;;;;;5064999;28;20444;-89
2022/09/11 05:31:17;;;;;;;0.10;0.10;;;13.20;99.90;;;;;;5062076;28;21003;-88
2022/09/11 05:33:44;;;;;;;0.10;0.10;;;13.30;99.90;;;;;;5065095;28;20460;-89
2022/09/11 05:36:11;;;;;;;0.10;0.10;;;13.30;99.90;;;;;;5074332;28;20197;-90
2022/09/11 05:38:37;;;;;;;0.10;0.10;;;13.40;99.90;;;;;;5066463;28;20442;-90
2022/09/11 05:41:06;;;;;;;0.10;0.10;;;13.40;99.90;;;;;;5066440;28;20607;-88
2022/09/11 05:43:32;;;;;;;0.10;0.10;;;13.50;99.90;;;;;;5059878;28;20881;-90
2022/09/11 05:45:59;;;;;;;0.10;0.10;;;13.60;99.90;;;;;;5054764;28;20958;-89
2022/09/11 05:48:27;;;;;;;0.10;0.10;;;13.70;99.90;;;;;;5067553;28;20481;-89
2022/09/11 05:50:58;;;;;;;0.10;0.10;;;13.70;99.90;;;;;;5061894;28;20458;-89
2022/09/11 05:53:25;;;;;;;0.10;0.10;;;13.80;99.90;;;;;;5051114;28;20445;-89
2022/09/11 05:55:51;;;;;;;0.10;0.10;;;13.80;99.90;;;;;;5070756;28;20458;-90
2022/09/11 05:58:17;;;;;;;0.10;0.10;;;13.90;99.90;;;;;;5065560;28;20543;-89
2022/09/11 06:00:46;;;;;;;0.10;0.10;;;13.90;99.90;;;;;;5085199;28;20252;-89
2022/09/11 06:03:15;;;;;;;0.10;0.10;;;13.90;99.90;;;;;;5069932;28;20450;-88
2022/09/11 06:05:40;;;;;;;0.10;0.10;;;13.90;99.90;;;;;;5068383;28;20476;-89
2022/09/11 06:08:07;;;;;;;0.10;0.10;;;13.90;99.90;;;;;;5070526;28;20480;-89
2022/09/11 06:10:33;;;;;;;0.10;0.10;;;14.00;99.90;;;;;;5070088;28;20251;-89
2022/09/11 06:12:59;;;;;;;0.10;0.10;;;14.00;99.90;;;;;;5062921;28;20443;-89
2022/09/11 06:15:24;;;;;;;0.10;0.10;;;14.10;99.90;;;;;;5062598;28;20861;-89
2022/09/11 06:17:50;;;;;;;0.10;0.10;;;14.10;99.90;;;;;;5065491;28;20228;-89
2022/09/11 06:20:15;;;;;;;0.10;0.10;;;14.10;99.90;;;;;;5069779;28;20217;-89
2022/09/11 06:22:41;;;;;;;0.10;0.10;;;14.10;99.90;;;;;;5066050;28;20625;-88
2022/09/11 06:25:07;;;;;;;0.10;0.10;;;14.20;99.90;;;;;;5068396;28;20589;-89
2022/09/11 06:27:33;;;;;;;0.10;0.10;;;14.30;99.90;;;;;;5064600;28;20182;-90
2022/09/11 06:29:58;;;;;;;0.10;0.10;;;14.20;99.90;;;;;;5070083;28;20501;-88
2022/09/11 06:32:24;;;;;;;0.10;0.10;;;14.30;99.90;;;;;;5054736;28;20262;-88
2022/09/11 06:34:50;;;;;;;0.10;0.10;;;14.30;99.90;;;;;;5067864;28;20193;-90
2022/09/11 06:37:15;;;;;;;0.10;0.10;;;14.40;99.90;;;;;;5067911;28;20694;-89
2022/09/11 06:39:41;;;;;;;0.10;0.10;;;14.40;99.90;;;;;;5067643;28;20221;-88
2022/09/11 06:42:07;;;;;;;0.10;0.10;;;14.40;99.90;;;;;;5067949;28;20700;-87
2022/09/11 06:44:32;;;;;;;0.10;0.10;;;14.40;99.90;;;;;;5064447;28;20194;-86
2022/09/11 06:46:58;;;;;;;0.10;0.10;;;14.40;99.90;;;;;;5062120;28;20440;-86
2022/09/11 06:49:24;;;;;;;0.10;0.10;;;14.40;99.90;;;;;;5062021;28;20238;-86
2022/09/11 06:51:51;;;;;;;0.10;0.10;;;14.50;99.90;;;;;;5068421;28;20186;-86
2022/09/11 06:54:16;;;;;;;0.10;0.10;;;14.50;99.90;;;;;;5069111;28;20447;-87
2022/09/11 06:56:44;;;;;;;0.10;0.10;;;14.50;99.90;;;;;;5071408;28;20440;-86
2022/09/11 06:59:09;;;;;;;0.10;0.10;;;14.60;99.90;;;;;;5064038;28;20726;-86
2022/09/11 07:01:35;;;;;;;0.10;0.10;;;14.60;99.90;;;;;;5071813;28;20459;-86
2022/09/11 07:04:01;;;;;;;0.10;0.10;;;14.60;99.90;;;;;;5067646;28;20199;-87
2022/09/11 07:06:29;;;;;;;0.10;0.10;;;14.60;99.90;;;;;;5068190;28;20194;-86
2022/09/11 07:09:00;;;;;;;0.10;0.10;;;14.60;99.90;;;;;;5061048;28;20447;-86
2022/09/11 07:11:26;;;;;;;0.10;0.10;;;14.70;99.90;;;;;;5067291;28;20459;-86
2022/09/11 07:13:52;;;;;;;0.10;0.10;;;14.70;99.90;;;;;;5069189;28;20468;-86
2022/09/11 07:16:18;;;;;;;0.10;0.10;;;14.80;99.90;;;;;;5071058;28;20977;-85
2022/09/11 07:18:46;;;;;;;0.10;0.10;;;14.80;99.90;;;;;;5067340;28;21444;-85
2022/09/11 07:21:13;;;;;;;0.10;0.10;;;14.80;99.90;;;;;;5070359;28;20225;-86
2022/09/11 07:23:39;;;;;;;0.10;0.10;;;14.90;99.90;;;;;;5061015;28;20441;-86
2022/09/11 07:26:07;;;;;;;0.10;0.10;;;14.90;99.90;;;;;;5058787;28;20448;-86
2022/09/11 07:28:34;;;;;;;0.10;0.10;;;14.90;99.90;;;;;;5060349;28;20436;-86
2022/09/11 07:31:03;;;;;;;0.10;0.10;;;15.00;99.90;;;;;;5069078;28;20510;-86
2022/09/11 07:33:28;;;;;;;0.10;0.10;;;14.90;99.90;;;;;;5067838;28;20844;-86
2022/09/11 07:35:54;;;;;;;0.10;0.10;;;14.90;99.90;;;;;;5063313;28;20444;-86
2022/09/11 07:38:19;;;;;;;0.10;0.10;;;14.90;99.90;;;;;;5067933;28;20257;-87
2022/09/11 07:40:45;;;;;;;0.10;0.10;;;15.00;99.90;;;;;;5066918;28;20214;-85
2022/09/11 07:43:12;;;;;;;0.10;0.10;;;15.00;99.90;;;;;;5070134;28;20178;-85
2022/09/11 07:45:38;;;;;;;0.10;0.10;;;15.00;99.90;;;;;;5061946;28;20319;-85
2022/09/11 07:48:05;;;;;;;0.10;0.10;;;15.10;99.90;;;;;;5062900;28;20466;-85
2022/09/11 07:50:32;;;;;;;0.10;0.10;;;15.20;99.90;;;;;;5065100;28;20605;-85
2022/09/11 07:52:57;;;;;;;0.10;0.10;;;15.20;99.90;;;;;;5066480;28;20813;-85
2022/09/11 07:55:23;;;;;;;0.10;0.10;;;15.30;99.90;;;;;;5067418;28;20447;-86
2022/09/11 07:57:50;;;;;;;0.10;0.10;;;15.30;99.90;;;;;;5068563;28;20272;-86
2022/09/11 08:00:16;;;;;;;0.10;0.10;;;15.40;99.90;;;;;;5068145;28;20213;-85
2022/09/11 08:02:41;;;;;;;0.10;0.10;;;15.50;99.90;;;;;;5066910;28;20428;-86
2022/09/11 08:05:07;;;;;;;0.10;0.10;;;15.60;99.90;;;;;;5068040;28;20638;-86
2022/09/11 08:07:33;;;;;;;0.10;0.10;;;15.70;99.90;;;;;;5068975;28;20182;-85
2022/09/11 08:09:58;;;;;;;0.10;0.10;;;15.70;99.90;;;;;;5066457;28;20193;-85
2022/09/11 08:12:24;;;;;;;0.10;0.10;;;15.70;99.90;;;;;;5067884;28;20178;-84
2022/09/11 08:14:49;;;;;;;0.10;0.10;;;15.90;99.90;;;;;;5060643;28;20889;-84
2022/09/11 08:17:15;;;;;;;0.10;0.10;;;15.70;99.90;;;;;;5069463;28;20738;-84
2022/09/11 08:19:40;;;;;;;0.10;0.10;;;15.80;99.90;;;;;;5062555;28;20214;-85
2022/09/11 08:22:07;;;;;;;0.10;0.10;;;15.80;99.90;;;;;;5059046;28;20186;-84
2022/09/11 08:24:34;;;;;;;0.10;0.10;;;15.80;99.90;;;;;;5068627;28;20202;-85
2022/09/11 08:26:59;;;;;;;0.10;0.10;;;15.80;99.90;;;;;;5061097;28;20438;-84
2022/09/11 08:29:25;;;;;;;0.10;0.10;;;15.80;99.90;;;;;;5059992;28;20480;-85
2022/09/11 08:31:51;;;;;;;0.10;0.00;;;15.80;99.90;;;;;;5053960;28;20709;-85
2022/09/11 08:34:17;;;;;;;0.10;0.10;;;15.90;99.90;;;;;;5059300;28;20197;-84
2022/09/11 08:36:42;;;;;;;0.10;0.10;;;16.00;99.90;;;;;;5068539;28;20561;-84
2022/09/11 08:39:08;;;;;;;0.10;0.10;;;16.00;99.90;;;;;;5058877;28;20584;-84
2022/09/11 08:41:47;;;;;;;0.10;0.10;;;15.90;99.90;;;;;;5067261;28;20181;-85
2022/09/11 08:44:16;;;;;;;0.10;0.10;;;16.00;99.90;;;;;;5061671;28;20443;-86
2022/09/11 08:46:45;;;;;;;0.10;0.10;;;15.90;99.90;;;;;;5063762;28;20445;-86
2022/09/11 08:49:18;;;;;;;0.10;0.10;;;15.90;99.90;;;;;;5058529;28;20524;-84
2022/09/11 08:51:46;;;;;;;0.10;0.10;;;15.90;99.90;;;;;;5060309;28;20455;-85
2022/09/11 08:54:38;;;;;;;0.10;0.10;;;15.90;99.90;;;;;;5066546;28;20440;-84
2022/09/11 08:57:21;;;;;;;0.10;0.10;;;15.80;99.90;;;;;;5060292;28;21000;-84
2022/09/11 09:00:13;;;;;;;0.10;0.10;;;15.80;99.90;;;;;;5066370;28;20846;-84
2022/09/11 09:03:16;;;;;;;0.10;0.10;;;15.90;99.90;;;;;;5066313;28;20436;-84
2022/09/11 09:05:52;;;;;;;0.10;0.10;;;16.00;99.90;;;;;;5066031;28;21336;-84
2022/09/11 09:08:27;;;;;;;0.10;0.10;;;16.00;99.90;;;;;;5066652;28;20492;-84
2022/09/11 09:11:15;;;;;;;0.10;0.10;;;16.10;99.90;;;;;;5070307;28;20919;-83
2022/09/11 09:13:57;;;;;;;0.10;0.10;;;16.40;99.90;;;;;;5067732;28;20444;-84
2022/09/11 09:16:42;;;;;;;0.10;0.10;;;16.60;99.90;;;;;;5070179;28;20424;-87
2022/09/11 09:19:31;;;;;;;0.10;0.10;;;16.70;99.90;;;;;;5049934;28;20469;-86
2022/09/11 09:22:23;;;;;;;0.10;0.10;;;16.90;99.90;;;;;;5061934;28;20443;-87
2022/09/11 09:24:52;;;;;;;0.10;0.10;;;17.20;99.90;;;;;;5070289;28;20424;-86
2022/09/11 09:27:32;;;;;;;0.10;0.10;;;17.50;99.90;;;;;;5068677;28;20440;-87
2022/09/11 09:30:02;;;;;;;0.10;0.10;;;17.50;99.90;;;;;;5065538;28;20479;-86
2022/09/11 09:32:35;;;;;;;0.10;0.10;;;18.00;99.90;;;;;;5068922;28;20931;-85
2022/09/11 09:35:09;;;;;;;0.00;0.00;;;17.90;99.90;;;;;;5069517;28;20451;-86
2022/09/11 09:37:37;;;;;;;0.00;0.00;;;17.90;99.90;;;;;;5065748;28;21327;-86
2022/09/11 09:40:07;;;;;;;0.00;0.00;;;18.50;99.90;;;;;;5069298;28;20580;-86
2022/09/11 09:43:13;;;;;;;0.00;0.00;;;19.20;99.90;;;;;;5067347;28;20440;-87
2022/09/11 09:45:44;;;;;;;0.10;0.10;;;19.20;99.90;;;;;;5064562;28;20436;-86
2022/09/11 09:48:10;;;;;;;0.00;0.00;;;18.80;99.90;;;;;;5060422;28;20471;-86
2022/09/11 09:50:41;;;;;;;0.00;0.00;;;18.80;99.90;;;;;;5049812;28;20414;-86
2022/09/11 09:53:31;;;;;;;0.10;0.00;;;19.70;99.90;;;;;;5049913;28;20582;-85
2022/09/11 09:55:59;;;;;;;0.00;0.00;;;19.40;99.90;;;;;;5067584;28;20440;-86
2022/09/11 09:58:31;;;;;;;0.00;0.00;;;19.00;99.90;;;;;;5068412;28;20420;-86
2022/09/11 10:00:56;;;;;;;0.10;0.00;;;18.60;99.90;;;;;;5069826;28;20507;-86
2022/09/11 10:03:23;;;;;;;0.10;0.00;;;18.30;99.90;;;;;;5068388;28;20451;-86
2022/09/11 10:05:53;;;;;;;0.10;0.00;;;18.00;99.90;;;;;;5058318;28;20189;-86
2022/09/11 10:08:30;;;;;;;0.10;0.00;;;17.90;99.90;;;;;;5070570;28;20413;-86
2022/09/11 10:11:02;;;;;;;0.10;0.00;;;17.80;99.90;;;;;;5080537;28;20461;-86
2022/09/11 10:13:31;;;;;;;0.10;0.10;;;17.80;99.90;;;;;;5067042;28;20420;-86
2022/09/11 10:15:59;;;;;;;0.10;0.10;;;17.80;99.90;;;;;;5069132;28;20440;-86
2022/09/11 10:18:31;;;;;;;0.10;0.00;;;17.90;99.90;;;;;;5059952;28;20444;-86
2022/09/11 10:21:11;;;;;;;0.10;0.00;;;18.10;99.90;;;;;;5068148;28;20556;-86
2022/09/11 10:23:55;;;;;;;0.10;0.00;;;18.10;99.90;;;;;;5068698;28;20448;-86
2022/09/11 10:26:44;;;;;;;0.10;0.00;;;18.00;99.90;;;;;;5068032;28;21093;-86
2022/09/11 10:29:48;;;;;;;0.10;0.10;;;18.00;99.90;;;;;;5061955;28;20468;-86
2022/09/11 10:32:16;;;;;;;0.10;0.10;;;17.70;99.90;;;;;;5047969;28;20428;-86
2022/09/11 10:34:42;;;;;;;0.10;0.10;;;17.50;99.90;;;;;;5060390;28;20448;-84
2022/09/11 10:37:12;;;;;;;0.10;0.10;;;17.40;99.90;;;;;;5066785;28;20447;-87
2022/09/11 10:39:40;;;;;;;0.10;0.10;;;17.30;99.90;;;;;;5064461;28;20214;-86
2022/09/11 10:42:21;;;;;;;0.10;0.00;;;17.20;99.90;;;;;;5065582;28;20448;-86
2022/09/11 10:44:48;;;;;;;0.10;0.07;;;17.20;99.90;;;;;;5064106;28;20815;-86
2022/09/11 10:47:20;;;;;;;0.10;0.00;;;17.20;99.90;;;;;;5072815;28;20412;-84
2022/09/11 10:49:46;;;;;;;0.10;0.10;;;17.30;99.90;;;;;;5071889;28;20466;-84
2022/09/11 10:52:12;;;;;;;0.10;0.10;;;17.50;99.90;;;;;;5070851;28;21237;-84
2022/09/11 10:55:05;;;;;;;0.00;0.00;;;18.00;99.90;;;;;;5072039;28;21026;-84
2022/09/11 10:57:42;;;;;;;0.10;0.10;;;18.40;99.90;;;;;;5051255;28;20221;-84
2022/09/11 11:00:22;;;;;;;0.10;0.00;;;18.50;99.90;;;;;;5052609;28;20480;-84
2022/09/11 11:03:05;;;;;;;0.10;0.00;;;19.20;99.90;;;;;;5055517;28;20975;-85
2022/09/11 11:06:03;;;;;;;0.10;0.10;;;19.50;99.90;;;;;;5069072;28;20481;-85
2022/09/11 11:08:56;;;;;;;0.07;0.00;;;19.40;99.90;;;;;;5070143;28;20448;-84
2022/09/11 11:11:39;;;;;;;0.00;0.00;;;19.60;99.90;;;;;;5070494;28;20486;-85
2022/09/11 11:14:39;;;;;;;0.10;0.00;;;19.60;99.90;;;;;;5063972;28;20954;-84
2022/09/11 11:17:14;;;;;;;0.00;0.00;;;19.50;99.90;;;;;;5056629;28;20463;-85
2022/09/11 11:20:03;;;;;;;0.10;0.10;;;19.50;99.90;;;;;;5070798;28;20463;-84
2022/09/11 11:22:44;;;;;;;0.10;0.10;;;19.40;99.90;;;;;;5067492;28;20452;-84
2022/09/11 11:25:26;;;;;;;0.07;0.00;;;19.20;99.90;;;;;;5067968;28;20440;-84
2022/09/11 11:28:27;;;;;;;0.10;0.00;;;18.80;99.90;;;;;;5071482;28;20853;-84
2022/09/11 11:31:01;;;;;;;0.00;0.00;;;18.40;99.90;;;;;;5067275;28;20564;-86
2022/09/11 11:33:37;;;;;;;0.00;0.00;;;18.10;99.90;;;;;;5052644;28;20489;-86
2022/09/11 11:36:16;;;;;;;0.00;0.00;;;17.90;99.90;;;;;;5068587;28;20493;-87
2022/09/11 11:39:03;;;;;;;0.10;0.10;;;17.90;99.90;;;;;;5070536;28;20440;-86
2022/09/11 11:41:36;;;;;;;0.10;0.00;;;17.90;99.90;;;;;;5067847;28;20435;-86
2022/09/11 11:44:04;;;;;;;0.10;0.00;;;18.10;99.90;;;;;;5061500;28;21056;-86
2022/09/11 11:46:37;;;;;;;0.10;0.10;;;19.00;99.90;;;;;;5058405;28;20440;-86
2022/09/11 11:49:03;;;;;;;0.10;0.00;;;19.60;99.90;;;;;;5063248;28;20968;-87
2022/09/11 11:51:42;;;;;;;0.10;0.00;;;19.70;99.90;;;;;;5056632;28;20452;-87
2022/09/11 11:54:16;;;;;;;0.07;0.00;;;20.10;99.90;;;;;;5057587;28;20190;-88
2022/09/11 11:56:55;;;;;;;0.10;0.10;;;20.10;99.90;;;;;;5057256;28;20450;-87
2022/09/11 11:59:39;;;;;;;0.00;0.00;;;20.20;99.90;;;;;;5054807;28;20464;-87
2022/09/11 12:02:10;;;;;;;0.10;0.00;;;20.60;99.90;;;;;;5060725;28;20452;-87
2022/09/11 12:04:54;;;;;;;0.00;0.00;;;21.30;99.90;;;;;;5063012;28;20479;-88
2022/09/11 12:07:28;;;;;;;0.00;0.00;;;21.60;99.90;;;;;;5064745;28;20458;-88
2022/09/11 12:09:56;;;;;;;0.10;0.00;;;21.80;99.90;;;;;;5061531;28;20450;-88
2022/09/11 12:12:27;;;;;;;0.00;0.00;;;22.20;99.90;;;;;;5062978;28;20526;-88
2022/09/11 12:14:55;;;;;;;0.00;0.00;;;22.20;99.90;;;;;;5067365;28;20499;-88
2022/09/11 12:17:26;;;;;;;0.10;0.00;;;22.10;99.90;;;;;;5063980;28;21351;-88
2022/09/11 12:20:10;;;;;;;0.00;0.00;;;22.80;99.90;;;;;;5061053;28;20495;-87
2022/09/11 12:22:41;;;;;;;0.00;0.00;;;23.90;99.90;;;;;;5060792;28;20440;-87
2022/09/11 12:25:18;;;;;;;0.00;0.00;;;25.10;99.90;;;;;;5055685;28;20919;-84
2022/09/11 12:27:51;;;;;;;0.00;0.00;;;26.00;99.90;;;;;;5056985;28;20447;-85
2022/09/11 12:30:17;;;;;;;0.00;0.00;;;26.30;99.90;;;;;;5066315;28;20514;-84
2022/09/11 12:32:48;;;;;;;0.00;0.00;;;27.00;99.90;;;;;;5062183;28;20872;-84
2022/09/11 12:35:20;;;;;;;0.00;0.00;;;26.40;99.90;;;;;;5059778;28;20262;-84
2022/09/11 12:37:55;;;;;;;0.00;0.00;;;26.20;99.90;;;;;;5066909;28;20472;-85
2022/09/11 12:40:55;;;;;;;0.00;0.00;;;26.60;99.90;;;;;;5079159;28;20517;-85
2022/09/11 12:43:36;;;;;;;0.00;0.00;;;25.70;99.90;;;;;;5059877;28;20966;-84
2022/09/11 12:46:05;;;;;;;0.00;0.00;;;23.90;99.90;;;;;;5059549;28;20459;-84
2022/09/11 12:48:43;;;;;;;0.00;0.00;;;23.10;99.90;;;;;;5065574;28;20476;-85
2022/09/11 12:51:29;;;;;;;0.00;0.00;;;22.50;99.90;;;;;;5063198;28;20452;-84
2022/09/11 12:54:19;;;;;;;0.00;0.00;;;21.80;99.90;;;;;;5061453;28;20444;-85
2022/09/11 12:56:48;;;;;;;0.00;0.00;;;21.40;99.90;;;;;;5058033;28;20428;-84
2022/09/11 12:59:24;;;;;;;0.00;0.00;;;21.20;99.90;;;;;;5063271;28;20456;-85
2022/09/11 13:01:51;;;;;;;0.00;0.00;;;21.10;99.90;;;;;;5065143;28;20514;-84
2022/09/11 13:04:20;;;;;;;0.00;0.00;;;22.50;99.90;;;;;;5060590;28;20798;-84
2022/09/11 13:06:50;;;;;;;0.00;0.00;;;24.00;99.90;;;;;;5065721;28;20451;-84
2022/09/11 13:09:28;;;;;;;0.00;0.00;;;25.00;99.90;;;;;;5065591;28;20432;-86
2022/09/11 13:12:25;;;;;;;0.00;0.00;;;26.00;99.90;;;;;;5044814;28;20429;-85